createdAt,value
2023-03-23T00:15:49.870Z,49.3
2023-03-23T00:35:49.978Z,49.4
2023-03-23T00:55:49.783Z,49.4
2023-03-23T01:15:49.767Z,49.4
2023-03-23T01:35:49.732Z,49.4
2023-03-23T01:55:49.716Z,49.4
2023-03-23T02:15:49.748Z,49.4
2023-03-23T02:35:49.840Z,49.4
2023-03-23T02:55:49.679Z,49.4
2023-03-23T03:15:49.657Z,49.5
2023-03-23T03:35:49.638Z,49.4
2023-03-23T03:55:49.592Z,49.5
2023-03-23T04:15:49.571Z,49.5
2023-03-23T04:35:49.650Z,49.2
2023-03-23T04:55:49.527Z,49.1
2023-03-23T05:15:49.498Z,49.2
2023-03-23T05:35:49.431Z,49.1
2023-03-23T05:55:49.414Z,48.9
2023-03-23T06:15:49.579Z,48.8
2023-03-23T06:35:49.399Z,48.8
2023-03-23T06:55:49.530Z,48.9
2023-03-23T07:15:49.432Z,49.2
2023-03-23T07:35:49.321Z,49.4
2023-03-23T07:55:49.273Z,49.5
2023-03-23T08:15:49.345Z,49.5
2023-03-23T08:35:49.241Z,49.5
2023-03-23T08:55:49.343Z,49.3
2023-03-23T09:15:49.391Z,49.3
2023-03-23T09:35:49.148Z,49.5
2023-03-23T09:55:49.114Z,49.6
2023-03-23T10:15:49.145Z,49.5
2023-03-23T10:35:49.078Z,49.5
2023-03-23T10:55:49.098Z,49.5
2023-03-23T11:15:49.036Z,49.8
2023-03-23T11:35:49.092Z,49.9
2023-03-23T11:55:48.978Z,49.9
2023-03-23T12:15:49.122Z,49.9
2023-03-23T12:35:49.107Z,49.8
2023-03-23T12:55:48.904Z,49.8
2023-03-23T13:15:48.884Z,49.7
2023-03-23T13:35:48.862Z,49.7
2023-03-23T13:55:48.889Z,49.5
2023-03-23T14:15:48.845Z,49.4
2023-03-23T14:35:48.772Z,49.4
2023-03-23T14:55:48.727Z,49.4
2023-03-23T15:15:48.717Z,49.4
2023-03-23T15:35:48.803Z,49.4
2023-03-23T15:55:48.670Z,49.5
2023-03-23T16:15:48.820Z,49.4
2023-03-23T16:35:48.755Z,49.4
2023-03-23T16:55:48.663Z,49.4
2023-03-23T17:15:48.539Z,49.4
2023-03-23T17:35:48.534Z,49.4
2023-03-23T17:55:48.675Z,49.4
2023-03-23T18:15:48.477Z,49.4
2023-03-23T18:35:48.543Z,49.8
2023-03-23T18:55:48.600Z,50.4
2023-03-23T19:15:48.386Z,50.3
2023-03-23T19:35:48.518Z,50.1
2023-03-23T19:55:48.335Z,50.1
2023-03-23T20:15:48.350Z,50.1
2023-03-23T20:35:48.481Z,50.1
2023-03-23T20:55:48.294Z,50.1
2023-03-23T21:15:48.372Z,50.1
2023-03-23T21:35:48.375Z,50.2
2023-03-23T21:55:48.336Z,50.2
2023-03-23T22:15:48.341Z,50.2
2023-03-23T22:35:48.292Z,50.1
2023-03-23T22:55:48.196Z,50.1
2023-03-23T23:15:48.154Z,50.1
2023-03-23T23:35:48.246Z,50.1
2023-03-23T23:55:48.024Z,50.2
